sensor_id;sensor_type;location;lat;lon;timestamp;pressure;altitude;pressure_sealevel;temperature;humidity
54455;BME280;40364;52.270;10.546;2023-05-02T00:00:59;100584.66;;;20.84;49.17
54455;BME280;40364;52.270;10.546;2023-05-02T00:03:29;100579.97;;;20.53;49.66
54455;BME280;40364;52.270;10.546;2023-05-02T00:05:56;100583.59;;;20.61;49.07
54455;BME280;40364;52.270;10.546;2023-05-02T00:08:22;100586.47;;;21.19;48.04
54455;BME280;40364;52.270;10.546;2023-05-02T00:10:49;100585.47;;;21.44;47.74
54455;BME280;40364;52.270;10.546;2023-05-02T00:13:17;100592.31;;;20.91;48.69
54455;BME280;40364;52.270;10.546;2023-05-02T00:15:43;100590.75;;;20.79;49.58
54455;BME280;40364;52.270;10.546;2023-05-02T00:18:10;100582.38;;;20.58;50.04
54455;BME280;40364;52.270;10.546;2023-05-02T00:20:38;100584.63;;;19.72;53.45
54455;BME280;40364;52.270;10.546;2023-05-02T00:23:05;100593.03;;;20.15;52.22
54455;BME280;40364;52.270;10.546;2023-05-02T00:25:32;100586.66;;;19.68;53.26
54455;BME280;40364;52.270;10.546;2023-05-02T00:27:58;100590.28;;;19.87;53.94
54455;BME280;40364;52.270;10.546;2023-05-02T00:30:26;100588.66;;;19.50;55.61
54455;BME280;40364;52.270;10.546;2023-05-02T00:32:53;100589.44;;;19.90;54.53
54455;BME280;40364;52.270;10.546;2023-05-02T00:35:19;100585.03;;;19.64;55.13
54455;BME280;40364;52.270;10.546;2023-05-02T00:37:46;100587.03;;;19.60;54.48
54455;BME280;40364;52.270;10.546;2023-05-02T00:40:13;100589.44;;;19.18;57.09
54455;BME280;40364;52.270;10.546;2023-05-02T00:42:40;100593.47;;;19.17;56.17
54455;BME280;40364;52.270;10.546;2023-05-02T00:45:07;100588.94;;;20.27;53.54
54455;BME280;40364;52.270;10.546;2023-05-02T00:47:35;100591.53;;;20.87;50.75
54455;BME280;40364;52.270;10.546;2023-05-02T00:50:02;100599.94;;;20.00;52.68
54455;BME280;40364;52.270;10.546;2023-05-02T00:52:30;100602.19;;;20.55;50.84
54455;BME280;40364;52.270;10.546;2023-05-02T00:54:56;100608.34;;;20.39;50.88
54455;BME280;40364;52.270;10.546;2023-05-02T00:57:23;100606.34;;;19.04;54.10
54455;BME280;40364;52.270;10.546;2023-05-02T00:59:50;100600.38;;;19.66;53.21
54455;BME280;40364;52.270;10.546;2023-05-02T01:02:31;100595.09;;;19.43;54.66
54455;BME280;40364;52.270;10.546;2023-05-02T01:05:10;100594.72;;;19.70;53.32
54455;BME280;40364;52.270;10.546;2023-05-02T01:07:50;100597.53;;;19.24;55.19
54455;BME280;40364;52.270;10.546;2023-05-02T01:10:25;100590.59;;;18.96;55.48
54455;BME280;40364;52.270;10.546;2023-05-02T01:12:57;100598.31;;;19.99;52.47
54455;BME280;40364;52.270;10.546;2023-05-02T01:15:24;100599.94;;;19.93;51.81
54455;BME280;40364;52.270;10.546;2023-05-02T01:17:53;100598.34;;;19.74;52.46
54455;BME280;40364;52.270;10.546;2023-05-02T01:20:23;100598.72;;;19.15;54.51
54455;BME280;40364;52.270;10.546;2023-05-02T01:22:53;100597.50;;;19.16;55.62
54455;BME280;40364;52.270;10.546;2023-05-02T01:25:26;100604.81;;;19.74;53.75
54455;BME280;40364;52.270;10.546;2023-05-02T01:28:04;100608.41;;;19.22;55.68
54455;BME280;40364;52.270;10.546;2023-05-02T01:30:37;100614.84;;;19.11;56.01
54455;BME280;40364;52.270;10.546;2023-05-02T01:33:07;100607.41;;;18.57;58.48
54455;BME280;40364;52.270;10.546;2023-05-02T01:35:34;100607.88;;;18.63;59.14
54455;BME280;40364;52.270;10.546;2023-05-02T01:38:02;100608.75;;;18.88;57.42
54455;BME280;40364;52.270;10.546;2023-05-02T01:40:33;100613.09;;;18.61;58.67
54455;BME280;40364;52.270;10.546;2023-05-02T01:43:02;100610.63;;;18.56;58.85
54455;BME280;40364;52.270;10.546;2023-05-02T01:45:30;100614.72;;;18.62;58.27
54455;BME280;40364;52.270;10.546;2023-05-02T01:48:00;100617.97;;;18.74;58.36
54455;BME280;40364;52.270;10.546;2023-05-02T01:50:27;100615.13;;;18.64;58.16
54455;BME280;40364;52.270;10.546;2023-05-02T01:52:55;100608.41;;;19.18;56.73
54455;BME280;40364;52.270;10.546;2023-05-02T01:55:24;100614.91;;;19.58;54.94
54455;BME280;40364;52.270;10.546;2023-05-02T01:57:53;100616.00;;;18.96;56.27
54455;BME280;40364;52.270;10.546;2023-05-02T02:00:22;100621.63;;;18.82;57.02
54455;BME280;40364;52.270;10.546;2023-05-02T02:02:52;100615.94;;;18.75;58.12
54455;BME280;40364;52.270;10.546;2023-05-02T02:05:22;100622.47;;;18.93;57.36
54455;BME280;40364;52.270;10.546;2023-05-02T02:07:49;100620.19;;;18.37;59.77
54455;BME280;40364;52.270;10.546;2023-05-02T02:10:17;100628.97;;;19.29;56.77
54455;BME280;40364;52.270;10.546;2023-05-02T02:12:49;100627.66;;;18.80;58.03
54455;BME280;40364;52.270;10.546;2023-05-02T02:15:20;100630.56;;;19.12;57.59
54455;BME280;40364;52.270;10.546;2023-05-02T02:17:56;100632.69;;;19.51;56.05
54455;BME280;40364;52.270;10.546;2023-05-02T02:20:26;100635.00;;;19.13;57.27
54455;BME280;40364;52.270;10.546;2023-05-02T02:22:55;100632.94;;;18.96;57.08
54455;BME280;40364;52.270;10.546;2023-05-02T02:25:22;100633.88;;;19.75;54.19
54455;BME280;40364;52.270;10.546;2023-05-02T02:27:51;100639.53;;;19.57;54.37
54455;BME280;40364;52.270;10.546;2023-05-02T02:30:18;100638.22;;;19.05;55.35
54455;BME280;40364;52.270;10.546;2023-05-02T02:32:44;100646.00;;;19.86;52.93
54455;BME280;40364;52.270;10.546;2023-05-02T02:35:11;100641.16;;;19.79;53.08
54455;BME280;40364;52.270;10.546;2023-05-02T02:37:42;100647.97;;;19.43;55.76
54455;BME280;40364;52.270;10.546;2023-05-02T02:40:18;100653.94;;;18.95;57.52
54455;BME280;40364;52.270;10.546;2023-05-02T02:42:51;100655.22;;;18.29;64.86
54455;BME280;40364;52.270;10.546;2023-05-02T02:45:28;100662.72;;;18.07;67.58
54455;BME280;40364;52.270;10.546;2023-05-02T02:47:59;100663.19;;;18.89;62.81
54455;BME280;40364;52.270;10.546;2023-05-02T02:50:31;100662.00;;;18.93;63.67
54455;BME280;40364;52.270;10.546;2023-05-02T02:53:02;100678.91;;;18.90;63.27
54455;BME280;40364;52.270;10.546;2023-05-02T02:55:37;100668.94;;;18.34;65.22
54455;BME280;40364;52.270;10.546;2023-05-02T02:58:14;100677.47;;;18.48;63.67
54455;BME280;40364;52.270;10.546;2023-05-02T03:00:45;100676.44;;;18.81;62.57
54455;BME280;40364;52.270;10.546;2023-05-02T03:03:13;100684.31;;;17.89;65.42
54455;BME280;40364;52.270;10.546;2023-05-02T03:05:41;100684.34;;;18.50;63.02
54455;BME280;40364;52.270;10.546;2023-05-02T03:08:10;100690.22;;;18.24;62.45
54455;BME280;40364;52.270;10.546;2023-05-02T03:10:37;100689.56;;;18.48;62.33
54455;BME280;40364;52.270;10.546;2023-05-02T03:13:04;100689.22;;;17.95;63.44
54455;BME280;40364;52.270;10.546;2023-05-02T03:16:05;100688.84;;;18.00;62.16
54455;BME280;40364;52.270;10.546;2023-05-02T03:18:38;100698.19;;;18.77;60.96
54455;BME280;40364;52.270;10.546;2023-05-02T03:21:05;100695.84;;;18.90;58.88
54455;BME280;40364;52.270;10.546;2023-05-02T03:23:33;100698.28;;;18.98;59.57
54455;BME280;40364;52.270;10.546;2023-05-02T03:26:00;100699.09;;;18.26;60.61
54455;BME280;40364;52.270;10.546;2023-05-02T03:28:27;100704.31;;;18.24;60.89
54455;BME280;40364;52.270;10.546;2023-05-02T03:30:53;100701.81;;;18.12;60.87
54455;BME280;40364;52.270;10.546;2023-05-02T03:33:20;100706.81;;;17.44;63.87
54455;BME280;40364;52.270;10.546;2023-05-02T03:35:47;100704.75;;;17.78;61.60
54455;BME280;40364;52.270;10.546;2023-05-02T03:38:13;100702.84;;;17.90;60.87
54455;BME280;40364;52.270;10.546;2023-05-02T03:40:41;100701.75;;;18.60;58.73
54455;BME280;40364;52.270;10.546;2023-05-02T03:43:08;100709.03;;;18.64;57.15
54455;BME280;40364;52.270;10.546;2023-05-02T03:45:35;100726.94;;;18.31;60.16
54455;BME280;40364;52.270;10.546;2023-05-02T03:48:02;100719.84;;;18.59;62.93
54455;BME280;40364;52.270;10.546;2023-05-02T03:50:29;100727.13;;;16.90;66.76
54455;BME280;40364;52.270;10.546;2023-05-02T03:52:56;100728.06;;;18.23;63.43
54455;BME280;40364;52.270;10.546;2023-05-02T03:55:23;100724.31;;;18.01;63.92
54455;BME280;40364;52.270;10.546;2023-05-02T03:57:51;100734.00;;;18.66;60.34
54455;BME280;40364;52.270;10.546;2023-05-02T04:00:18;100730.75;;;18.05;61.88
54455;BME280;40364;52.270;10.546;2023-05-02T04:02:44;100737.41;;;17.83;64.02
54455;BME280;40364;52.270;10.546;2023-05-02T04:05:11;100737.44;;;18.34;62.73
54455;BME280;40364;52.270;10.546;2023-05-02T04:07:38;100747.00;;;17.38;65.36
54455;BME280;40364;52.270;10.546;2023-05-02T04:10:05;100746.88;;;18.08;63.85
54455;BME280;40364;52.270;10.546;2023-05-02T04:12:32;100743.66;;;18.10;63.23
54455;BME280;40364;52.270;10.546;2023-05-02T04:15:01;100745.91;;;18.41;61.32
54455;BME280;40364;52.270;10.546;2023-05-02T04:17:27;100748.75;;;18.41;60.24
54455;BME280;40364;52.270;10.546;2023-05-02T04:19:54;100746.09;;;18.11;61.89
54455;BME280;40364;52.270;10.546;2023-05-02T04:22:21;100753.03;;;18.21;61.17
54455;BME280;40364;52.270;10.546;2023-05-02T04:24:47;100764.75;;;17.42;66.38
54455;BME280;40364;52.270;10.546;2023-05-02T04:27:14;100763.84;;;18.67;61.28
54455;BME280;40364;52.270;10.546;2023-05-02T04:29:40;100763.72;;;18.52;60.97
54455;BME280;40364;52.270;10.546;2023-05-02T04:32:09;100769.69;;;18.40;62.42
54455;BME280;40364;52.270;10.546;2023-05-02T04:34:35;100771.34;;;18.48;61.36
54455;BME280;40364;52.270;10.546;2023-05-02T04:37:02;100777.00;;;19.17;58.74
54455;BME280;40364;52.270;10.546;2023-05-02T04:39:29;100783.00;;;19.09;58.40
54455;BME280;40364;52.270;10.546;2023-05-02T04:41:55;100782.94;;;18.33;62.25
54455;BME280;40364;52.270;10.546;2023-05-02T04:44:22;100781.31;;;18.35;62.43
54455;BME280;40364;52.270;10.546;2023-05-02T04:46:49;100791.84;;;18.42;62.84
54455;BME280;40364;52.270;10.546;2023-05-02T04:49:17;100791.53;;;18.54;61.93
54455;BME280;40364;52.270;10.546;2023-05-02T04:51:43;100793.47;;;19.01;60.07
54455;BME280;40364;52.270;10.546;2023-05-02T04:54:10;100795.84;;;18.96;60.49
54455;BME280;40364;52.270;10.546;2023-05-02T04:56:37;100797.75;;;18.74;61.02
54455;BME280;40364;52.270;10.546;2023-05-02T04:59:04;100806.59;;;18.21;63.23
54455;BME280;40364;52.270;10.546;2023-05-02T05:01:31;100804.84;;;18.06;64.22
54455;BME280;40364;52.270;10.546;2023-05-02T05:03:58;100806.97;;;18.64;61.33
54455;BME280;40364;52.270;10.546;2023-05-02T05:06:25;100814.06;;;19.09;60.76
54455;BME280;40364;52.270;10.546;2023-05-02T05:08:52;100818.34;;;18.81;61.12
54455;BME280;40364;52.270;10.546;2023-05-02T05:11:19;100812.69;;;18.27;63.58
54455;BME280;40364;52.270;10.546;2023-05-02T05:13:45;100815.94;;;18.83;61.54
54455;BME280;40364;52.270;10.546;2023-05-02T05:16:12;100824.38;;;18.76;60.63
54455;BME280;40364;52.270;10.546;2023-05-02T05:18:39;100830.69;;;19.21;59.60
54455;BME280;40364;52.270;10.546;2023-05-02T05:21:06;100834.28;;;18.56;63.96
54455;BME280;40364;52.270;10.546;2023-05-02T05:23:34;100838.22;;;18.44;67.34
54455;BME280;40364;52.270;10.546;2023-05-02T05:26:08;100847.28;;;17.49;73.58
54455;BME280;40364;52.270;10.546;2023-05-02T05:28:36;100845.75;;;16.66;81.82
54455;BME280;40364;52.270;10.546;2023-05-02T05:31:06;100857.41;;;17.54;78.81
54455;BME280;40364;52.270;10.546;2023-05-02T05:33:33;100856.06;;;17.74;75.71
54455;BME280;40364;52.270;10.546;2023-05-02T05:36:04;100863.81;;;17.51;82.20
54455;BME280;40364;52.270;10.546;2023-05-02T05:38:31;100859.09;;;18.33;77.78
54455;BME280;40364;52.270;10.546;2023-05-02T05:40:59;100851.91;;;18.97;73.61
54455;BME280;40364;52.270;10.546;2023-05-02T05:43:26;100874.53;;;17.68;81.15
54455;BME280;40364;52.270;10.546;2023-05-02T05:45:53;100868.06;;;17.38;86.58
54455;BME280;40364;52.270;10.546;2023-05-02T05:48:20;100866.69;;;17.88;83.78
54455;BME280;40364;52.270;10.546;2023-05-02T05:50:47;100873.06;;;17.51;96.12
54455;BME280;40364;52.270;10.546;2023-05-02T05:53:14;100894.72;;;17.17;95.58
54455;BME280;40364;52.270;10.546;2023-05-02T05:55:41;100885.25;;;17.29;100.00
54455;BME280;40364;52.270;10.546;2023-05-02T05:58:09;100891.97;;;17.51;98.57
54455;BME280;40364;52.270;10.546;2023-05-02T06:00:36;100905.63;;;17.49;99.58
54455;BME280;40364;52.270;10.546;2023-05-02T06:03:04;100902.59;;;17.95;95.57
54455;BME280;40364;52.270;10.546;2023-05-02T06:05:31;100899.91;;;17.42;100.00
54455;BME280;40364;52.270;10.546;2023-05-02T06:07:57;100913.06;;;17.64;100.00
54455;BME280;40364;52.270;10.546;2023-05-02T06:10:24;100919.94;;;17.97;95.62
54455;BME280;40364;52.270;10.546;2023-05-02T06:12:51;100916.16;;;17.26;99.45
54455;BME280;40364;52.270;10.546;2023-05-02T06:15:19;100916.88;;;16.93;100.00
54455;BME280;40364;52.270;10.546;2023-05-02T06:17:46;100923.00;;;17.25;100.00
54455;BME280;40364;52.270;10.546;2023-05-02T06:20:13;100927.78;;;17.80;96.87
54455;BME280;40364;52.270;10.546;2023-05-02T06:22:40;100931.41;;;17.51;96.86
54455;BME280;40364;52.270;10.546;2023-05-02T06:25:07;100926.81;;;17.09;95.90
54455;BME280;40364;52.270;10.546;2023-05-02T06:27:34;100937.72;;;16.88;100.00
54455;BME280;40364;52.270;10.546;2023-05-02T06:30:00;100942.91;;;16.63;100.00
54455;BME280;40364;52.270;10.546;2023-05-02T06:32:31;100958.44;;;15.73;100.00
54455;BME280;40364;52.270;10.546;2023-05-02T06:34:57;100959.81;;;15.63;100.00
54455;BME280;40364;52.270;10.546;2023-05-02T06:37:24;100974.34;;;15.49;100.00
54455;BME280;40364;52.270;10.546;2023-05-02T06:39:51;100975.66;;;16.10;100.00
54455;BME280;40364;52.270;10.546;2023-05-02T06:42:17;100980.25;;;15.79;99.10
54455;BME280;40364;52.270;10.546;2023-05-02T06:44:44;100988.09;;;15.90;98.34
54455;BME280;40364;52.270;10.546;2023-05-02T06:47:11;100990.13;;;16.31;94.48
54455;BME280;40364;52.270;10.546;2023-05-02T06:49:39;100994.75;;;15.81;96.04
54455;BME280;40364;52.270;10.546;2023-05-02T06:52:05;101008.75;;;15.11;99.71
54455;BME280;40364;52.270;10.546;2023-05-02T06:54:32;101007.75;;;15.04;100.00
54455;BME280;40364;52.270;10.546;2023-05-02T06:56:59;101020.00;;;15.46;99.33
54455;BME280;40364;52.270;10.546;2023-05-02T06:59:26;101022.91;;;15.50;97.10
54455;BME280;40364;52.270;10.546;2023-05-02T07:01:53;101033.03;;;15.90;92.71
54455;BME280;40364;52.270;10.546;2023-05-02T07:04:19;101032.50;;;15.33;95.12
54455;BME280;40364;52.270;10.546;2023-05-02T07:06:47;101046.16;;;15.66;93.68
54455;BME280;40364;52.270;10.546;2023-05-02T07:09:14;101050.03;;;14.95;92.43
54455;BME280;40364;52.270;10.546;2023-05-02T07:11:41;101053.72;;;15.81;88.43
54455;BME280;40364;52.270;10.546;2023-05-02T07:14:08;101049.25;;;16.15;81.66
54455;BME280;40364;52.270;10.546;2023-05-02T07:16:34;101059.22;;;16.32;77.73
54455;BME280;40364;52.270;10.546;2023-05-02T07:19:01;101065.38;;;16.19;83.08
54455;BME280;40364;52.270;10.546;2023-05-02T07:21:28;101063.22;;;16.12;78.78
54455;BME280;40364;52.270;10.546;2023-05-02T07:23:58;101070.31;;;16.06;77.55
54455;BME280;40364;52.270;10.546;2023-05-02T07:26:25;101069.31;;;15.79;72.45
54455;BME280;40364;52.270;10.546;2023-05-02T07:28:52;101076.94;;;15.78;74.03
54455;BME280;40364;52.270;10.546;2023-05-02T07:31:18;101076.41;;;15.73;70.22
54455;BME280;40364;52.270;10.546;2023-05-02T07:33:45;101085.69;;;16.12;65.66
54455;BME280;40364;52.270;10.546;2023-05-02T07:36:12;101095.00;;;16.35;65.55
54455;BME280;40364;52.270;10.546;2023-05-02T07:38:38;101092.28;;;16.20;64.87
54455;BME280;40364;52.270;10.546;2023-05-02T07:41:07;101093.50;;;16.61;62.22
54455;BME280;40364;52.270;10.546;2023-05-02T07:43:33;101092.28;;;16.20;64.06
54455;BME280;40364;52.270;10.546;2023-05-02T07:46:03;101104.53;;;17.34;59.30
54455;BME280;40364;52.270;10.546;2023-05-02T07:48:31;101105.03;;;17.40;58.83
54455;BME280;40364;52.270;10.546;2023-05-02T07:51:05;101110.44;;;17.52;57.13
54455;BME280;40364;52.270;10.546;2023-05-02T07:53:32;101108.97;;;16.51;60.28
54455;BME280;40364;52.270;10.546;2023-05-02T07:55:58;101102.50;;;17.08;58.43
54455;BME280;40364;52.270;10.546;2023-05-02T07:58:26;101113.00;;;16.69;57.63
54455;BME280;40364;52.270;10.546;2023-05-02T08:00:53;101110.41;;;16.80;55.97
54455;BME280;40364;52.270;10.546;2023-05-02T08:03:20;101121.06;;;17.36;54.41
54455;BME280;40364;52.270;10.546;2023-05-02T08:05:46;101124.56;;;17.06;54.68
54455;BME280;40364;52.270;10.546;2023-05-02T08:08:13;101125.81;;;16.67;54.03
54455;BME280;40364;52.270;10.546;2023-05-02T08:10:40;101119.75;;;16.65;53.96
54455;BME280;40364;52.270;10.546;2023-05-02T08:13:06;101131.78;;;17.53;51.74
54455;BME280;40364;52.270;10.546;2023-05-02T08:15:34;101136.47;;;17.42;52.26
54455;BME280;40364;52.270;10.546;2023-05-02T08:18:01;101137.41;;;16.46;54.22
54455;BME280;40364;52.270;10.546;2023-05-02T08:20:27;101133.16;;;16.71;54.35
54455;BME280;40364;52.270;10.546;2023-05-02T08:22:54;101146.94;;;17.22;53.22
54455;BME280;40364;52.270;10.546;2023-05-02T08:25:21;101144.56;;;17.01;52.55
54455;BME280;40364;52.270;10.546;2023-05-02T08:27:47;101148.97;;;17.67;51.70
54455;BME280;40364;52.270;10.546;2023-05-02T08:30:14;101158.16;;;17.41;50.78
54455;BME280;40364;52.270;10.546;2023-05-02T08:32:42;101154.59;;;17.67;50.98
54455;BME280;40364;52.270;10.546;2023-05-02T08:35:09;101164.16;;;16.75;51.51
54455;BME280;40364;52.270;10.546;2023-05-02T08:37:36;101160.09;;;17.60;49.21
54455;BME280;40364;52.270;10.546;2023-05-02T08:40:03;101168.41;;;17.30;49.73
54455;BME280;40364;52.270;10.546;2023-05-02T08:42:32;101167.44;;;18.47;48.08
54455;BME280;40364;52.270;10.546;2023-05-02T08:44:59;101182.00;;;18.79;46.26
54455;BME280;40364;52.270;10.546;2023-05-02T08:47:26;101184.00;;;17.93;48.33
54455;BME280;40364;52.270;10.546;2023-05-02T08:49:58;101184.59;;;18.35;46.72
54455;BME280;40364;52.270;10.546;2023-05-02T08:52:25;101202.13;;;18.78;46.25
54455;BME280;40364;52.270;10.546;2023-05-02T08:54:53;101193.13;;;18.39;46.99
54455;BME280;40364;52.270;10.546;2023-05-02T08:57:20;101205.53;;;17.59;48.24
54455;BME280;40364;52.270;10.546;2023-05-02T08:59:47;101208.28;;;17.55;48.29
54455;BME280;40364;52.270;10.546;2023-05-02T09:02:22;101211.22;;;17.62;48.23
54455;BME280;40364;52.270;10.546;2023-05-02T09:04:53;101205.38;;;18.80;46.30
54455;BME280;40364;52.270;10.546;2023-05-02T09:07:27;101220.97;;;19.04;46.06
54455;BME280;40364;52.270;10.546;2023-05-02T09:09:54;101219.34;;;19.77;44.00
54455;BME280;40364;52.270;10.546;2023-05-02T09:12:24;101224.03;;;19.62;44.21
54455;BME280;40364;52.270;10.546;2023-05-02T09:15:09;101224.03;;;18.88;46.00
54455;BME280;40364;52.270;10.546;2023-05-02T09:17:54;101226.22;;;18.72;45.34
54455;BME280;40364;52.270;10.546;2023-05-02T09:20:21;101240.06;;;17.33;48.89
54455;BME280;40364;52.270;10.546;2023-05-02T09:22:51;101246.94;;;18.27;46.67
54455;BME280;40364;52.270;10.546;2023-05-02T09:25:19;101243.66;;;19.11;45.53
54455;BME280;40364;52.270;10.546;2023-05-02T09:27:50;101246.94;;;17.77;47.12
54455;BME280;40364;52.270;10.546;2023-05-02T09:30:18;101256.03;;;17.67;47.80
54455;BME280;40364;52.270;10.546;2023-05-02T09:32:46;101256.13;;;17.74;47.29
54455;BME280;40364;52.270;10.546;2023-05-02T09:35:15;101267.41;;;17.32;48.64
54455;BME280;40364;52.270;10.546;2023-05-02T09:37:50;101271.47;;;17.77;47.16
54455;BME280;40364;52.270;10.546;2023-05-02T09:40:16;101265.56;;;17.63;46.68
54455;BME280;40364;52.270;10.546;2023-05-02T09:42:43;101272.81;;;17.22;46.86
54455;BME280;40364;52.270;10.546;2023-05-02T09:45:19;101272.31;;;17.35;46.69
54455;BME280;40364;52.270;10.546;2023-05-02T09:47:47;101276.94;;;17.47;45.05
54455;BME280;40364;52.270;10.546;2023-05-02T09:50:37;101290.63;;;18.93;43.00
54455;BME280;40364;52.270;10.546;2023-05-02T09:53:07;101284.97;;;18.63;42.07
54455;BME280;40364;52.270;10.546;2023-05-02T09:55:34;101288.31;;;18.45;42.41
54455;BME280;40364;52.270;10.546;2023-05-02T09:58:00;101293.00;;;18.34;42.03
54455;BME280;40364;52.270;10.546;2023-05-02T10:00:38;101295.22;;;17.99;43.42
54455;BME280;40364;52.270;10.546;2023-05-02T10:03:06;101304.00;;;17.94;43.16
54455;BME280;40364;52.270;10.546;2023-05-02T10:05:35;101299.75;;;17.61;43.61
54455;BME280;40364;52.270;10.546;2023-05-02T10:08:06;101295.03;;;19.57;40.26
54455;BME280;40364;52.270;10.546;2023-05-02T10:10:35;101303.41;;;18.57;41.82
54455;BME280;40364;52.270;10.546;2023-05-02T10:13:03;101310.72;;;18.12;42.05
54455;BME280;40364;52.270;10.546;2023-05-02T10:15:31;101318.91;;;17.33;43.81
54455;BME280;40364;52.270;10.546;2023-05-02T10:17:59;101305.03;;;17.86;42.46
54455;BME280;40364;52.270;10.546;2023-05-02T10:20:29;101315.97;;;18.36;42.04
54455;BME280;40364;52.270;10.546;2023-05-02T10:22:59;101321.38;;;18.71;40.52
54455;BME280;40364;52.270;10.546;2023-05-02T10:25:28;101323.66;;;19.52;39.77
54455;BME280;40364;52.270;10.546;2023-05-02T10:27:55;101324.53;;;19.56;39.38
54455;BME280;40364;52.270;10.546;2023-05-02T10:30:22;101328.25;;;17.37;41.65
54455;BME280;40364;52.270;10.546;2023-05-02T10:32:50;101331.59;;;18.57;40.22
54455;BME280;40364;52.270;10.546;2023-05-02T10:35:18;101334.41;;;19.43;38.91
54455;BME280;40364;52.270;10.546;2023-05-02T10:37:46;101329.88;;;19.35;38.27
54455;BME280;40364;52.270;10.546;2023-05-02T10:40:14;101324.50;;;19.26;38.74
54455;BME280;40364;52.270;10.546;2023-05-02T10:42:43;101336.13;;;19.84;38.20
54455;BME280;40364;52.270;10.546;2023-05-02T10:45:12;101339.00;;;19.21;38.48
54455;BME280;40364;52.270;10.546;2023-05-02T10:47:39;101335.75;;;19.19;38.86
54455;BME280;40364;52.270;10.546;2023-05-02T10:50:06;101340.66;;;17.74;40.82
54455;BME280;40364;52.270;10.546;2023-05-02T10:52:35;101344.38;;;19.33;38.39
54455;BME280;40364;52.270;10.546;2023-05-02T10:55:16;101345.44;;;18.62;39.00
54455;BME280;40364;52.270;10.546;2023-05-02T10:58:22;101352.28;;;18.15;39.22
54455;BME280;40364;52.270;10.546;2023-05-02T11:00:48;101345.09;;;18.44;39.95
54455;BME280;40364;52.270;10.546;2023-05-02T11:06:15;101341.25;;;19.42;38.05
54455;BME280;40364;52.270;10.546;2023-05-02T11:08:41;101337.75;;;20.33;36.86
54455;BME280;40364;52.270;10.546;2023-05-02T11:11:40;101344.75;;;19.32;37.44
54455;BME280;40364;52.270;10.546;2023-05-02T11:14:10;101350.44;;;18.49;38.45
54455;BME280;40364;52.270;10.546;2023-05-02T11:17:08;101337.19;;;19.39;37.38
54455;BME280;40364;52.270;10.546;2023-05-02T11:20:17;101330.91;;;19.90;36.40
54455;BME280;40364;52.270;10.546;2023-05-02T11:22:44;101339.88;;;18.20;39.26
54455;BME280;40364;52.270;10.546;2023-05-02T11:25:32;101344.66;;;18.65;38.02
54455;BME280;40364;52.270;10.546;2023-05-02T11:28:00;101335.56;;;19.72;36.69
54455;BME280;40364;52.270;10.546;2023-05-02T11:30:44;101344.34;;;19.30;37.64
54455;BME280;40364;52.270;10.546;2023-05-02T11:33:16;101347.19;;;20.44;36.06
54455;BME280;40364;52.270;10.546;2023-05-02T11:35:45;101346.56;;;19.80;36.57
54455;BME280;40364;52.270;10.546;2023-05-02T11:38:13;101343.63;;;19.70;36.51
54455;BME280;40364;52.270;10.546;2023-05-02T11:40:58;101356.06;;;20.43;35.07
54455;BME280;40364;52.270;10.546;2023-05-02T11:43:38;101350.38;;;19.99;35.98
54455;BME280;40364;52.270;10.546;2023-05-02T11:46:07;101362.41;;;20.77;34.77
54455;BME280;40364;52.270;10.546;2023-05-02T11:48:35;101350.28;;;19.21;36.38
54455;BME280;40364;52.270;10.546;2023-05-02T11:51:02;101351.78;;;19.11;37.06
54455;BME280;40364;52.270;10.546;2023-05-02T11:53:31;101361.66;;;19.25;36.96
54455;BME280;40364;52.270;10.546;2023-05-02T11:55:59;101355.38;;;20.12;36.02
54455;BME280;40364;52.270;10.546;2023-05-02T11:58:27;101356.50;;;19.04;37.02
54455;BME280;40364;52.270;10.546;2023-05-02T12:00:57;101354.84;;;20.00;36.03
54455;BME280;40364;52.270;10.546;2023-05-02T12:03:27;101354.44;;;21.00;34.50
54455;BME280;40364;52.270;10.546;2023-05-02T12:05:54;101369.59;;;20.23;35.09
54455;BME280;40364;52.270;10.546;2023-05-02T12:08:22;101371.69;;;19.52;36.55
54455;BME280;40364;52.270;10.546;2023-05-02T12:10:51;101377.84;;;19.98;36.20
54455;BME280;40364;52.270;10.546;2023-05-02T12:13:20;101390.22;;;20.68;34.13
54455;BME280;40364;52.270;10.546;2023-05-02T12:15:48;101385.91;;;20.88;33.50
54455;BME280;40364;52.270;10.546;2023-05-02T12:18:16;101380.91;;;21.26;33.51
54455;BME280;40364;52.270;10.546;2023-05-02T12:20:44;101384.06;;;22.18;32.42
54455;BME280;40364;52.270;10.546;2023-05-02T12:23:12;101375.00;;;21.63;32.64
54455;BME280;40364;52.270;10.546;2023-05-02T12:25:39;101376.34;;;21.14;33.10
54455;BME280;40364;52.270;10.546;2023-05-02T12:28:05;101382.25;;;21.57;32.27
54455;BME280;40364;52.270;10.546;2023-05-02T12:30:33;101392.19;;;19.15;35.21
54455;BME280;40364;52.270;10.546;2023-05-02T12:33:01;101399.00;;;19.44;34.94
54455;BME280;40364;52.270;10.546;2023-05-02T12:35:28;101388.09;;;19.13;35.80
54455;BME280;40364;52.270;10.546;2023-05-02T12:38:09;101395.97;;;19.94;34.56
54455;BME280;40364;52.270;10.546;2023-05-02T12:40:36;101389.38;;;20.64;32.89
54455;BME280;40364;52.270;10.546;2023-05-02T12:43:04;101391.63;;;20.95;32.87
54455;BME280;40364;52.270;10.546;2023-05-02T12:45:35;101394.75;;;20.76;32.58
54455;BME280;40364;52.270;10.546;2023-05-02T12:48:05;101403.63;;;20.74;32.93
54455;BME280;40364;52.270;10.546;2023-05-02T12:50:43;101404.53;;;20.89;31.86
54455;BME280;40364;52.270;10.546;2023-05-02T12:53:11;101400.69;;;22.55;30.19